Time;durP1;ratioP1;P1;durP2;ratioP2;P2;SDS_P1;SDS_P2;PMS_P1;PMS_P2;Temp;Humidity;BMP_temperature;BMP_pressure;BME280_temperature;BME280_humidity;BME280_pressure;Samples;Min_cycle;Max_cycle;Signal;HPM_P1;HPM_P2
2022/12/13 00:00:41;;;;;;;2.45;1.38;;;;;;;-1.55;84.73;100317.38;5029774;28;20030;-73
2022/12/13 00:03:08;;;;;;;2.88;1.38;;;;;;;-1.60;85.21;100316.75;5028933;28;20026;-73
2022/12/13 00:05:34;;;;;;;4.00;1.90;;;;;;;-1.84;87.04;100322.06;5044873;28;20413;-73
2022/12/13 00:08:00;;;;;;;3.97;1.58;;;;;;;-1.81;85.97;100319.38;5022552;28;20060;-73
2022/12/13 00:10:27;;;;;;;5.40;2.17;;;;;;;-1.90;87.19;100319.00;5028039;28;20505;-72
2022/12/13 00:12:52;;;;;;;4.35;2.03;;;;;;;-1.90;87.56;100319.00;5027580;28;20386;-72
2022/12/13 00:15:18;;;;;;;4.30;2.30;;;;;;;-1.91;87.92;100313.06;5026937;28;20033;-73
2022/12/13 00:17:44;;;;;;;4.40;2.15;;;;;;;-2.00;88.99;100313.47;5026743;28;20567;-73
2022/12/13 00:20:11;;;;;;;5.95;2.92;;;;;;;-2.08;89.12;100308.69;5027537;28;20065;-73
2022/12/13 00:22:36;;;;;;;5.28;2.65;;;;;;;-2.18;89.96;100312.56;5028031;28;20124;-73
2022/12/13 00:25:02;;;;;;;5.70;2.45;;;;;;;-2.31;91.40;100308.03;5029379;28;20091;-73
2022/12/13 00:27:27;;;;;;;6.28;3.13;;;;;;;-2.42;92.12;100309.38;5025428;28;20052;-73
2022/12/13 00:29:53;;;;;;;6.45;2.47;;;;;;;-2.46;92.23;100307.00;5023313;28;20044;-73
2022/12/13 00:32:18;;;;;;;4.85;2.75;;;;;;;-2.50;93.23;100306.31;5027419;28;20040;-73
2022/12/13 00:34:43;;;;;;;6.50;2.65;;;;;;;-2.56;94.00;100309.13;5037061;28;20092;-73
2022/12/13 00:37:09;;;;;;;4.47;2.20;;;;;;;-2.63;95.46;100307.72;5020582;28;20033;-72
2022/12/13 00:39:34;;;;;;;6.15;2.90;;;;;;;-2.60;96.04;100309.31;5024104;28;20040;-72
2022/12/13 00:42:00;;;;;;;6.65;2.50;;;;;;;-2.70;95.60;100304.59;5027299;28;20041;-72
2022/12/13 00:44:25;;;;;;;6.45;3.05;;;;;;;-2.77;96.18;100310.84;5023885;28;20075;-72
2022/12/13 00:46:52;;;;;;;4.72;2.92;;;;;;;-2.82;97.02;100307.66;5024973;28;20502;-73
2022/12/13 00:49:17;;;;;;;4.32;1.90;;;;;;;-2.83;97.07;100310.28;5028220;28;20095;-72
2022/12/13 00:51:43;;;;;;;3.63;1.80;;;;;;;-2.89;97.18;100303.72;5024921;28;20549;-72
2022/12/13 00:54:09;;;;;;;6.22;2.42;;;;;;;-2.87;97.54;100299.41;5025049;28;20131;-72
2022/12/13 00:56:36;;;;;;;4.28;2.08;;;;;;;-2.90;97.94;100304.63;5028163;28;20037;-72
2022/12/13 00:59:02;;;;;;;5.35;1.98;;;;;;;-2.96;98.17;100309.16;5025450;28;20025;-72
2022/12/13 01:01:31;;;;;;;4.75;2.33;;;;;;;-2.92;96.07;100306.41;5027965;28;20052;-72
2022/12/13 01:03:59;;;;;;;4.47;2.00;;;;;;;-2.71;94.42;100302.94;5028863;28;20029;-72
2022/12/13 01:06:45;;;;;;;4.50;2.22;;;;;;;-2.53;92.63;100305.63;5027108;28;20483;-72
2022/12/13 01:09:26;;;;;;;7.47;2.80;;;;;;;-2.37;91.60;100301.50;5040015;28;20033;-72
2022/12/13 01:12:03;;;;;;;5.53;2.25;;;;;;;-2.39;89.06;100309.22;5021636;28;20050;-72
2022/12/13 01:14:28;;;;;;;5.20;2.17;;;;;;;-2.41;90.60;100300.81;5027331;28;20116;-72
2022/12/13 01:16:54;;;;;;;5.32;2.70;;;;;;;-2.43;91.96;100305.16;5023048;28;20136;-73
2022/12/13 01:19:21;;;;;;;5.65;2.92;;;;;;;-2.46;92.42;100302.75;5026505;28;20034;-72
2022/12/13 01:21:47;;;;;;;3.78;1.75;;;;;;;-2.35;91.32;100309.91;5027185;28;20025;-72
2022/12/13 01:24:13;;;;;;;5.43;2.55;;;;;;;-2.27;90.77;100312.94;5026986;28;20041;-75
2022/12/13 01:26:38;;;;;;;3.63;1.85;;;;;;;-2.26;90.39;100314.59;5023154;28;20067;-72
2022/12/13 01:29:04;;;;;;;5.13;2.30;;;;;;;-2.19;90.12;100318.56;5023343;28;20030;-73
2022/12/13 01:31:30;;;;;;;5.03;1.67;;;;;;;-2.19;90.98;100318.56;5024037;28;20041;-72
2022/12/13 01:33:55;;;;;;;5.03;1.73;;;;;;;-2.24;90.37;100312.81;5026454;28;20481;-72
2022/12/13 01:36:22;;;;;;;6.13;2.97;;;;;;;-2.27;87.40;100312.13;5024030;28;20052;-72
2022/12/13 01:38:47;;;;;;;7.93;2.47;;;;;;;-2.21;87.68;100305.03;5022963;28;20054;-72
2022/12/13 01:41:17;;;;;;;7.07;2.70;;;;;;;-2.24;89.59;100309.44;5028206;28;20046;-72
2022/12/13 01:43:42;;;;;;;4.78;2.10;;;;;;;-2.28;90.47;100313.03;5022633;28;20022;-72
2022/12/13 01:46:09;;;;;;;4.88;2.33;;;;;;;-2.23;89.86;100306.81;5027022;28;20488;-72
2022/12/13 01:48:41;;;;;;;4.60;2.47;;;;;;;-2.13;88.70;100304.69;5025079;28;20040;-72
2022/12/13 01:51:09;;;;;;;2.85;1.38;;;;;;;-2.11;89.69;100308.00;5019956;28;20159;-72
2022/12/13 01:53:39;;;;;;;3.53;1.88;;;;;;;-2.21;89.86;100304.19;5026670;28;20045;-75
2022/12/13 01:56:12;;;;;;;4.22;1.75;;;;;;;-2.21;89.71;100299.09;5027883;28;20033;-73
2022/12/13 01:58:40;;;;;;;2.90;1.35;;;;;;;-2.16;89.67;100297.16;5030472;28;20508;-74
2022/12/13 02:01:06;;;;;;;4.63;1.70;;;;;;;-2.14;89.36;100306.41;5030283;28;20080;-74
2022/12/13 02:03:33;;;;;;;3.42;1.40;;;;;;;-2.20;90.00;100306.69;5029047;28;20551;-74
2022/12/13 02:06:05;;;;;;;3.10;1.30;;;;;;;-2.18;89.50;100307.44;5031458;28;20036;-74
2022/12/13 02:08:31;;;;;;;3.28;1.50;;;;;;;-2.10;89.02;100302.00;5031264;28;20052;-74
2022/12/13 02:10:58;;;;;;;3.55;1.67;;;;;;;-2.07;89.31;100299.31;5029193;28;20115;-74
2022/12/13 02:13:23;;;;;;;3.80;1.67;;;;;;;-2.07;88.64;100306.97;5027053;28;20038;-74
2022/12/13 02:16:11;;;;;;;3.65;1.27;;;;;;;-2.01;87.02;100299.03;5030270;28;20219;-74
2022/12/13 02:18:36;;;;;;;2.90;1.20;;;;;;;-1.92;87.45;100298.63;5030784;28;20032;-74
2022/12/13 02:21:17;;;;;;;4.95;1.60;;;;;;;-2.01;86.21;100299.03;5030927;28;20127;-74
2022/12/13 02:23:49;;;;;;;3.85;1.67;;;;;;;-1.99;85.85;100296.44;5025894;28;20047;-74
2022/12/13 02:26:35;;;;;;;3.47;2.35;;;;;;;-1.94;86.20;100295.31;5029773;28;20046;-74
2022/12/13 02:29:16;;;;;;;;;;;;;;;-1.98;85.02;100293.81;5031081;28;20018;-74
2022/12/13 02:31:59;;;;;;;3.92;1.88;;;;;;;-1.97;85.13;100304.84;5024162;28;19971;-74
2022/12/13 02:34:44;;;;;;;6.25;1.60;;;;;;;-1.95;86.67;100298.78;5029999;28;20077;-74
2022/12/13 02:37:25;;;;;;;4.25;0.93;;;;;;;-1.93;85.84;100296.16;5031188;28;20034;-74
2022/12/13 02:39:59;;;;;;;3.40;1.33;;;;;;;-1.91;86.14;100284.16;5025578;28;20074;-74
2022/12/13 02:42:30;;;;;;;2.60;0.95;;;;;;;-1.95;86.52;100291.13;5027336;28;20108;-74
2022/12/13 02:45:10;;;;;;;3.03;1.38;;;;;;;-1.92;85.79;100292.69;5042115;28;20034;-75
2022/12/13 02:47:42;;;;;;;3.42;1.52;;;;;;;-1.91;86.01;100274.75;5020438;28;20102;-75
2022/12/13 02:50:09;;;;;;;3.13;1.33;;;;;;;-1.89;85.46;100275.47;5028646;28;20441;-75
2022/12/13 02:52:38;;;;;;;2.63;1.10;;;;;;;-1.96;85.54;100266.47;5029738;28;20068;-75
2022/12/13 02:55:11;;;;;;;2.15;0.90;;;;;;;-1.95;85.47;100259.66;5030241;28;20037;-74
2022/12/13 02:57:39;;;;;;;1.98;0.93;;;;;;;-1.98;85.51;100267.44;5029278;28;20037;-74
2022/12/13 03:00:11;;;;;;;2.15;0.77;;;;;;;-2.01;86.80;100265.84;5024323;28;20033;-74
2022/12/13 03:03:02;;;;;;;3.00;1.05;;;;;;;-2.07;86.49;100268.69;5023871;28;20025;-74
2022/12/13 03:09:06;;;;;;;2.45;0.65;;;;;;;-2.20;89.25;100244.59;5020939;28;20060;-74
2022/12/13 03:14:27;;;;;;;2.10;0.98;;;;;;;-2.27;90.17;100241.50;4986232;28;20545;-74
2022/12/13 03:16:54;;;;;;;2.75;1.25;;;;;;;-2.30;90.28;100240.81;4988297;28;20042;-74
2022/12/13 03:19:20;;;;;;;2.88;1.50;;;;;;;-2.36;90.46;100224.03;4978089;28;20078;-74
2022/12/13 03:21:48;;;;;;;2.97;1.23;;;;;;;-2.25;89.70;100224.38;4980776;28;20363;-74
2022/12/13 03:24:18;;;;;;;3.28;0.98;;;;;;;-2.15;89.85;100230.75;4986688;28;20160;-74
2022/12/13 03:26:45;;;;;;;3.05;1.23;;;;;;;-2.03;88.37;100224.25;4990032;28;20502;-74
2022/12/13 03:29:10;;;;;;;2.45;1.17;;;;;;;-1.98;87.80;100227.41;4985941;28;20041;-75
2022/12/13 03:31:36;;;;;;;2.25;0.90;;;;;;;-1.71;83.74;100228.66;4987994;28;20046;-74
2022/12/13 03:34:01;;;;;;;1.33;0.57;;;;;;;-1.33;76.27;100226.81;4986621;28;20038;-75
2022/12/13 03:36:27;;;;;;;1.95;0.60;;;;;;;-1.15;78.76;100226.81;4986048;28;20153;-74
2022/12/13 03:38:54;;;;;;;2.20;0.90;;;;;;;-1.15;79.63;100226.81;4984134;28;20169;-74
2022/12/13 03:41:30;;;;;;;4.25;1.50;;;;;;;-1.22;79.92;100228.84;4983679;28;20050;-75
2022/12/13 03:43:56;;;;;;;2.45;0.88;;;;;;;-1.18;79.70;100219.28;4982877;28;20120;-74
2022/12/13 03:46:22;;;;;;;2.47;0.60;;;;;;;-1.14;78.66;100229.28;5024553;28;20484;-74
2022/12/13 03:48:47;;;;;;;2.35;0.80;;;;;;;-1.25;80.17;100229.00;5026733;28;20032;-74
2022/12/13 03:51:13;;;;;;;2.30;1.17;;;;;;;-1.41;80.07;100222.97;5026407;28;20480;-74
2022/12/13 03:53:38;;;;;;;2.35;0.82;;;;;;;-1.49;81.49;100219.97;5029697;28;20052;-74
2022/12/13 03:56:04;;;;;;;3.15;1.17;;;;;;;-1.66;83.23;100228.44;5023432;28;20033;-75
2022/12/13 03:58:32;;;;;;;2.78;1.50;;;;;;;-1.72;82.86;100219.34;5027207;28;20059;-74
2022/12/13 04:00:57;;;;;;;2.42;0.88;;;;;;;-1.62;83.34;100208.69;5029143;28;20094;-74
2022/12/13 04:03:23;;;;;;;2.20;1.02;;;;;;;-1.59;83.70;100218.75;5025580;28;20030;-74
2022/12/13 04:05:48;;;;;;;2.53;1.27;;;;;;;-1.48;82.89;100211.41;5047262;28;20175;-74
2022/12/13 04:08:14;;;;;;;1.60;0.80;;;;;;;-1.50;82.24;100221.72;5034306;28;20459;-74
2022/12/13 04:10:39;;;;;;;2.50;0.82;;;;;;;-1.49;82.75;100217.44;5029256;28;20580;-75
2022/12/13 04:15:49;;;;;;;3.20;1.75;;;;;;;-1.41;80.12;100217.84;5020394;28;20103;-74
2022/12/13 04:18:16;;;;;;;3.88;1.70;;;;;;;-1.50;80.76;100208.09;5026520;28;20030;-75
2022/12/13 04:20:42;;;;;;;3.72;1.70;;;;;;;-1.50;82.21;100203.81;5029598;28;20021;-75
2022/12/13 04:23:07;;;;;;;2.55;1.15;;;;;;;-1.40;81.62;100204.19;5040489;28;20030;-74
2022/12/13 04:25:33;;;;;;;2.45;1.00;;;;;;;-1.23;79.36;100201.63;5028442;28;20040;-75
2022/12/13 04:27:58;;;;;;;3.47;0.90;;;;;;;-1.07;77.69;100199.13;5026470;28;20026;-74
2022/12/13 04:30:24;;;;;;;2.40;1.10;;;;;;;-1.06;78.11;100203.34;5027905;28;20059;-75
2022/12/13 04:32:49;;;;;;;2.60;1.20;;;;;;;-1.08;79.48;100200.88;5029508;28;20033;-74
2022/12/13 04:35:15;;;;;;;3.17;1.45;;;;;;;-1.12;80.05;100193.44;5027096;28;20083;-75
2022/12/13 04:37:40;;;;;;;2.75;1.00;;;;;;;-1.15;81.05;100179.06;5029265;28;20029;-74
2022/12/13 04:40:06;;;;;;;4.13;1.40;;;;;;;-1.17;82.03;100185.97;5029389;28;20029;-74
2022/12/13 04:42:32;;;;;;;6.28;2.17;;;;;;;-1.20;82.38;100185.31;5035462;28;20048;-75
2022/12/13 04:44:57;;;;;;;4.60;1.90;;;;;;;-1.23;83.49;100188.03;5029412;28;20104;-74
2022/12/13 04:47:23;;;;;;;4.80;1.73;;;;;;;-1.26;85.15;100180.50;5020110;28;20098;-75
2022/12/13 04:49:48;;;;;;;3.97;1.50;;;;;;;-1.29;86.11;100170.44;5021793;28;20018;-75
2022/12/13 04:52:13;;;;;;;3.53;1.50;;;;;;;-1.35;86.34;100180.06;5028908;28;20053;-75
2022/12/13 04:54:39;;;;;;;6.30;2.13;;;;;;;-1.36;86.42;100173.28;5027846;28;20041;-74
2022/12/13 04:57:08;;;;;;;5.10;1.85;;;;;;;-1.37;87.85;100163.13;5023114;28;20021;-75
2022/12/13 04:59:35;;;;;;;4.07;1.63;;;;;;;-1.37;88.24;100165.69;5023134;28;20065;-75
2022/12/13 05:02:00;;;;;;;3.35;1.55;;;;;;;-1.41;88.30;100166.75;5026788;28;20029;-74
2022/12/13 05:04:26;;;;;;;7.90;3.05;;;;;;;-1.39;89.43;100164.94;5043702;28;20370;-75
2022/12/13 05:06:51;;;;;;;4.85;2.00;;;;;;;-1.46;88.27;100167.00;5028712;28;20030;-75
2022/12/13 05:09:17;;;;;;;4.35;1.83;;;;;;;-1.48;90.21;100162.88;5027930;28;20045;-75
2022/12/13 05:11:42;;;;;;;6.70;3.05;;;;;;;-1.48;87.77;100153.47;5025972;28;20025;-73
2022/12/13 05:14:08;;;;;;;8.30;3.63;;;;;;;-1.45;87.61;100160.16;5028467;28;20036;-74
2022/12/13 05:16:33;;;;;;;6.53;3.47;;;;;;;-1.39;87.95;100157.28;5027307;28;20452;-74
2022/12/13 05:18:58;;;;;;;6.35;3.53;;;;;;;-1.37;88.93;100158.03;5024234;28;20040;-74
2022/12/13 05:21:24;;;;;;;4.85;2.75;;;;;;;-1.35;89.54;100161.34;5024446;28;20025;-74
2022/12/13 05:23:49;;;;;;;7.55;3.03;;;;;;;-1.37;90.05;100163.97;5027927;28;20029;-75
2022/12/13 05:26:15;;;;;;;8.68;4.05;;;;;;;-1.37;91.14;100168.25;5023885;28;20029;-75
2022/12/13 05:28:40;;;;;;;6.72;3.30;;;;;;;-1.40;91.47;100160.72;5027618;28;20071;-75
2022/12/13 05:31:11;;;;;;;6.72;3.40;;;;;;;-1.41;92.43;100171.84;5028170;28;20036;-75
2022/12/13 05:33:36;;;;;;;7.28;3.58;;;;;;;-1.42;92.52;100167.69;5027979;28;20326;-75
2022/12/13 05:36:04;;;;;;;9.80;3.58;;;;;;;-1.44;92.83;100166.94;5023884;28;20036;-75
2022/12/13 05:38:30;;;;;;;7.25;3.65;;;;;;;-1.48;93.63;100167.97;5023700;28;20039;-75
2022/12/13 05:40:55;;;;;;;8.60;3.53;;;;;;;-1.44;93.62;100169.47;5023864;28;20029;-75
2022/12/13 05:43:22;;;;;;;7.30;3.60;;;;;;;-1.41;93.13;100167.56;5022347;28;20071;-74
2022/12/13 05:45:48;;;;;;;8.07;4.55;;;;;;;-1.42;93.44;100165.13;5024137;28;20041;-75
2022/12/13 05:48:14;;;;;;;9.25;4.15;;;;;;;-1.42;92.86;100175.34;5022498;28;20045;-74
2022/12/13 05:50:41;;;;;;;13.25;6.53;;;;;;;-1.39;92.79;100154.72;5023539;28;20465;-75
2022/12/13 05:53:07;;;;;;;19.52;10.50;;;;;;;-1.33;92.85;100164.63;5026573;28;20489;-75
2022/12/13 05:55:32;;;;;;;24.30;12.35;;;;;;;-1.30;93.59;100156.00;5026703;28;20087;-75
2022/12/13 05:57:59;;;;;;;13.43;6.68;;;;;;;-1.30;93.26;100163.66;5026146;28;20033;-75
2022/12/13 06:00:25;;;;;;;6.88;3.65;;;;;;;-1.42;93.39;100155.69;5023327;28;20035;-75
2022/12/13 06:02:50;;;;;;;6.10;2.58;;;;;;;-1.44;93.07;100166.94;5024798;28;20026;-74
2022/12/13 06:05:16;;;;;;;10.73;4.10;;;;;;;-1.44;90.04;100161.81;5022073;28;20025;-75
2022/12/13 06:07:41;;;;;;;8.88;3.80;;;;;;;-1.37;90.20;100158.03;5023795;28;20021;-74
2022/12/13 06:10:07;;;;;;;10.27;4.43;;;;;;;-1.25;90.46;100157.41;5027501;28;20029;-75
2022/12/13 06:12:34;;;;;;;11.45;4.90;;;;;;;-1.19;89.99;100162.22;5026392;28;20052;-75
2022/12/13 06:14:59;;;;;;;8.70;4.35;;;;;;;-1.16;90.65;100162.06;5027692;28;20033;-74
2022/12/13 06:17:28;;;;;;;9.38;4.57;;;;;;;-1.16;90.54;100164.63;5027238;28;20120;-75
2022/12/13 06:19:54;;;;;;;8.70;4.75;;;;;;;-1.17;91.52;100159.59;5028269;28;20037;-74
2022/12/13 06:22:19;;;;;;;9.80;4.88;;;;;;;-1.19;92.09;100162.22;5026249;28;20455;-75
2022/12/13 06:24:44;;;;;;;7.47;4.28;;;;;;;-1.25;92.82;100159.97;5028228;28;20103;-75
2022/12/13 06:27:10;;;;;;;11.73;5.38;;;;;;;-1.27;93.69;100159.22;5025543;28;20025;-75
2022/12/13 06:29:35;;;;;;;11.82;5.97;;;;;;;-1.27;93.86;100164.34;5026468;28;20036;-74
2022/12/13 06:32:02;;;;;;;13.13;6.60;;;;;;;-1.26;93.08;100166.00;5027759;28;20021;-74
2022/12/13 06:34:29;;;;;;;10.57;6.03;;;;;;;-1.21;91.80;100169.16;5026303;28;20148;-74
2022/12/13 06:36:55;;;;;;;11.50;6.57;;;;;;;-1.18;91.86;100163.88;5021653;28;20029;-74
2022/12/13 06:39:20;;;;;;;12.80;6.45;;;;;;;-1.17;92.23;100168.09;5026096;28;20091;-74
2022/12/13 06:41:46;;;;;;;17.98;7.03;;;;;;;-1.14;92.03;100169.66;5025611;28;20037;-74
2022/12/13 06:44:11;;;;;;;14.65;6.47;;;;;;;-1.09;92.24;100171.09;5024039;28;20119;-74
2022/12/13 06:46:37;;;;;;;13.77;6.97;;;;;;;-1.12;92.74;100183.19;5027790;28;20084;-74
2022/12/13 06:49:03;;;;;;;10.48;6.53;;;;;;;-1.15;93.61;100181.63;5022701;28;20045;-74
2022/12/13 06:51:29;;;;;;;11.77;5.97;;;;;;;-1.15;93.24;100184.19;5025504;28;20527;-74
2022/12/13 06:53:55;;;;;;;14.30;5.45;;;;;;;-1.14;93.79;100192.69;5001015;28;20042;-74
2022/12/13 06:56:21;;;;;;;10.23;4.85;;;;;;;-1.15;93.24;100194.41;5020172;28;20392;-74
2022/12/13 06:58:47;;;;;;;11.38;5.55;;;;;;;-1.12;93.63;100193.44;5027365;28;20037;-74
2022/12/13 07:01:17;;;;;;;11.57;5.65;;;;;;;-1.10;93.59;100197.56;5022764;28;20524;-74
2022/12/13 07:03:43;;;;;;;13.13;5.43;;;;;;;-1.05;92.57;100203.28;5030108;28;20032;-74
2022/12/13 07:06:16;;;;;;;13.88;5.70;;;;;;;-1.02;92.67;100197.19;5030523;28;20033;-74
2022/12/13 07:08:46;;;;;;;12.52;6.55;;;;;;;-0.98;93.51;100201.22;5022921;28;20901;-74
2022/12/13 07:11:17;;;;;;;17.60;7.47;;;;;;;-0.95;93.57;100197.69;5025411;28;20034;-74
2022/12/13 07:13:42;;;;;;;27.50;12.40;;;;;;;-0.90;93.03;100204.19;5027709;28;20136;-74
2022/12/13 07:16:09;;;;;;;57.88;20.67;;;;;;;-0.87;92.73;100187.88;5030942;28;20029;-74
2022/12/13 07:18:34;;;;;;;35.50;13.95;;;;;;;-0.86;92.62;100197.19;5023059;28;20511;-75
2022/12/13 07:21:02;;;;;;;20.60;9.65;;;;;;;-0.71;86.66;100193.84;5026436;28;20041;-74
2022/12/13 07:23:28;;;;;;;23.35;11.65;;;;;;;-0.56;87.04;100190.50;5020389;28;20102;-74
2022/12/13 07:25:54;;;;;;;22.40;10.85;;;;;;;-0.51;87.98;100195.38;5030330;28;20442;-75
2022/12/13 07:28:20;;;;;;;20.58;10.45;;;;;;;-0.47;89.02;100202.78;5024347;28;20026;-73
2022/12/13 07:30:46;;;;;;;23.42;11.10;;;;;;;-0.44;89.29;100205.19;5028212;28;20029;-74
2022/12/13 07:33:12;;;;;;;21.85;10.70;;;;;;;-0.41;89.85;100193.97;5025603;28;20045;-74
2022/12/13 07:35:38;;;;;;;19.42;10.57;;;;;;;-0.39;90.46;100192.97;5020196;28;20037;-74
2022/12/13 07:38:05;;;;;;;13.52;7.05;;;;;;;-0.32;87.02;100195.22;5024912;28;20098;-74
2022/12/13 07:40:32;;;;;;;18.77;8.43;;;;;;;-0.21;88.18;100198.03;5021478;28;20042;-74
2022/12/13 07:42:58;;;;;;;17.80;7.65;;;;;;;-0.18;88.03;100195.31;5029562;28;20481;-74
2022/12/13 07:45:23;;;;;;;13.55;7.05;;;;;;;-0.14;86.68;100194.22;5027885;28;20069;-74
2022/12/13 07:47:49;;;;;;;9.88;5.20;;;;;;;-0.09;85.99;100192.25;5025468;28;20094;-74
2022/12/13 07:50:15;;;;;;;10.07;4.90;;;;;;;-0.01;85.53;100197.78;5029477;28;20472;-74
2022/12/13 07:52:41;;;;;;;9.00;5.47;;;;;;;0.03;85.37;100204.38;5026811;28;20106;-74
2022/12/13 07:55:07;;;;;;;8.63;5.50;;;;;;;0.06;85.49;100209.31;5024859;28;20038;-74
2022/12/13 07:57:33;;;;;;;12.60;5.47;;;;;;;0.09;84.81;100213.44;5025032;28;20025;-73
2022/12/13 08:00:21;;;;;;;6.82;4.03;;;;;;;0.11;80.54;100209.91;5032806;28;20172;-72
2022/12/13 08:02:46;;;;;;;8.82;4.00;;;;;;;0.25;79.06;100204.84;5025646;28;20053;-73
2022/12/13 08:05:12;;;;;;;7.93;4.22;;;;;;;0.41;75.92;100209.13;5022607;28;20084;-73
2022/12/13 08:07:37;;;;;;;8.18;2.80;;;;;;;0.56;73.20;100203.09;5025393;28;20414;-72
2022/12/13 08:10:03;;;;;;;7.10;3.03;;;;;;;0.67;73.88;100205.88;5023591;28;20038;-72
2022/12/13 08:12:28;;;;;;;9.23;3.20;;;;;;;0.79;75.21;100206.91;5028690;28;20052;-73
2022/12/13 08:14:54;;;;;;;7.75;3.08;;;;;;;0.87;76.17;100210.69;5039359;28;20038;-72
2022/12/13 08:17:19;;;;;;;4.70;2.72;;;;;;;0.89;74.13;100206.31;5023090;28;20026;-73
2022/12/13 08:19:45;;;;;;;7.72;2.70;;;;;;;0.95;73.02;100202.53;5040227;28;20381;-72
2022/12/13 08:22:13;;;;;;;7.03;4.15;;;;;;;0.94;72.61;100200.91;5025161;28;20548;-73
2022/12/13 08:24:39;;;;;;;7.10;2.90;;;;;;;0.95;72.70;100190.53;5021807;28;20579;-71
2022/12/13 08:27:04;;;;;;;5.00;2.28;;;;;;;1.02;73.12;100197.88;5029291;28;20048;-72
2022/12/13 08:29:33;;;;;;;5.28;2.97;;;;;;;1.14;72.57;100197.97;5026583;28;20084;-71
2022/12/13 08:31:59;;;;;;;4.45;1.95;;;;;;;1.24;73.65;100188.00;5027664;28;20030;-71
2022/12/13 08:34:24;;;;;;;4.75;2.20;;;;;;;1.33;74.12;100185.69;5025191;28;20088;-71
2022/12/13 08:36:51;;;;;;;3.45;1.77;;;;;;;1.38;73.96;100180.28;5024002;28;20033;-72
2022/12/13 08:39:16;;;;;;;4.97;2.58;;;;;;;1.45;73.85;100184.09;5024972;28;20883;-72
2022/12/13 08:41:42;;;;;;;5.47;2.10;;;;;;;1.47;71.85;100189.16;5029071;28;20082;-72
2022/12/13 08:44:07;;;;;;;8.50;1.90;;;;;;;1.49;71.41;100183.00;5025604;28;20036;-73
2022/12/13 08:46:32;;;;;;;5.45;2.50;;;;;;;1.52;70.99;100182.81;5027675;28;20033;-73
2022/12/13 08:48:58;;;;;;;5.55;3.65;;;;;;;1.53;72.37;100178.50;5021630;28;20030;-73
2022/12/13 08:51:24;;;;;;;10.68;5.35;;;;;;;1.54;74.41;100178.41;5023365;28;20021;-73
2022/12/13 08:53:52;;;;;;;18.48;8.52;;;;;;;1.55;74.32;100182.63;5023942;28;20025;-73
2022/12/13 08:56:18;;;;;;;7.20;3.13;;;;;;;1.59;71.15;100183.28;5025258;28;20338;-73
2022/12/13 08:58:47;;;;;;;9.57;3.63;;;;;;;1.66;71.37;100190.50;5022412;28;20033;-73
2022/12/13 09:01:13;;;;;;;8.98;5.55;;;;;;;1.77;71.36;100183.88;5019176;28;20029;-73
2022/12/13 09:03:38;;;;;;;7.72;4.80;;;;;;;1.81;71.02;100193.88;5027450;28;20044;-73
2022/12/13 09:06:09;;;;;;;12.43;6.93;;;;;;;1.88;70.19;100190.00;5032252;28;20033;-73
2022/12/13 09:08:36;;;;;;;14.60;5.25;;;;;;;1.87;70.85;100193.50;5026978;28;20377;-73
2022/12/13 09:11:02;;;;;;;6.88;4.03;;;;;;;1.81;69.56;100193.88;5027121;28;20099;-74
2022/12/13 09:13:30;;;;;;;4.93;2.17;;;;;;;1.79;67.45;100190.56;5026615;28;20049;-74
2022/12/13 09:15:55;;;;;;;6.00;2.90;;;;;;;1.83;68.03;100186.06;5020966;28;20422;-73
2022/12/13 09:18:21;;;;;;;4.32;2.25;;;;;;;1.90;68.25;100187.31;5024995;28;20059;-73
2022/12/13 09:20:46;;;;;;;5.35;2.72;;;;;;;1.89;67.51;100185.69;5027907;28;20025;-73
2022/12/13 09:23:12;;;;;;;4.18;2.28;;;;;;;1.89;67.37;100188.28;5023098;28;20037;-73
2022/12/13 09:25:37;;;;;;;3.30;1.95;;;;;;;1.89;65.16;100180.56;5026713;28;20033;-72
2022/12/13 09:28:06;;;;;;;4.93;1.77;;;;;;;1.91;65.02;100179.50;5031461;28;20029;-75
2022/12/13 09:30:32;;;;;;;5.82;2.30;;;;;;;1.89;63.95;100175.41;5025363;28;20137;-74
2022/12/13 09:32:57;;;;;;;4.25;2.40;;;;;;;1.87;64.66;100178.09;5020060;28;20580;-74
2022/12/13 09:35:23;;;;;;;3.35;1.80;;;;;;;1.87;63.50;100179.84;5021777;28;20056;-74
2022/12/13 09:37:49;;;;;;;4.13;2.40;;;;;;;1.88;63.77;100178.91;5018080;28;20064;-75
2022/12/13 09:40:21;;;;;;;3.20;1.92;;;;;;;1.85;63.51;100173.97;5020367;28;20381;-75
2022/12/13 09:42:50;;;;;;;2.83;1.50;;;;;;;1.84;64.86;100169.75;5018034;28;20030;-75
2022/12/13 09:45:16;;;;;;;2.47;1.58;;;;;;;1.84;63.08;100164.59;5015013;28;20033;-72
2022/12/13 09:47:44;;;;;;;9.10;1.98;;;;;;;1.83;64.28;100155.25;5024040;28;20080;-72
2022/12/13 09:50:23;;;;;;;4.57;1.92;;;;;;;1.85;63.88;100153.41;5020727;28;20477;-72
2022/12/13 09:52:48;;;;;;;3.88;2.35;;;;;;;1.90;65.40;100152.16;5012506;28;20127;-72
2022/12/13 09:55:19;;;;;;;3.58;2.10;;;;;;;1.97;65.45;100153.44;5019327;28;20041;-72
2022/12/13 09:57:45;;;;;;;5.97;2.80;;;;;;;2.02;64.87;100144.59;5017977;28;20030;-72
2022/12/13 10:00:15;;;;;;;4.57;2.75;;;;;;;2.08;65.47;100145.03;5026511;28;20032;-72
2022/12/13 10:02:50;;;;;;;7.90;3.15;;;;;;;2.13;64.49;100152.47;5026920;28;21301;-72
2022/12/13 10:05:31;;;;;;;5.18;2.70;;;;;;;2.12;62.70;100153.38;5025201;28;20135;-72
2022/12/13 10:08:03;;;;;;;5.88;2.53;;;;;;;2.14;65.28;100147.22;5024926;28;20025;-72
2022/12/13 10:10:28;;;;;;;5.53;2.78;;;;;;;2.20;65.67;100148.59;5032406;28;20033;-72
2022/12/13 10:13:23;;;;;;;5.22;3.30;;;;;;;2.12;60.37;100141.38;5030438;28;20059;-75
2022/12/13 10:16:03;;;;;;;6.50;3.42;;;;;;;2.09;60.58;100131.28;5004965;28;20037;-74
2022/12/13 10:18:40;;;;;;;8.43;3.72;;;;;;;2.10;62.14;100132.09;5028975;28;20614;-74
2022/12/13 10:21:26;;;;;;;6.72;3.35;;;;;;;2.08;61.37;100133.94;5026991;28;20531;-74
2022/12/13 10:23:51;;;;;;;9.93;4.75;;;;;;;2.05;62.73;100134.97;5026072;28;20437;-73
2022/12/13 10:26:17;;;;;;;8.70;4.35;;;;;;;2.05;63.35;100137.53;5029389;28;20041;-73
2022/12/13 10:28:43;;;;;;;6.90;3.55;;;;;;;2.04;63.29;100143.59;5045529;28;20087;-74
2022/12/13 10:31:15;;;;;;;4.85;2.42;;;;;;;1.98;63.34;100146.56;5021798;28;20025;-75
2022/12/13 10:33:53;;;;;;;3.78;2.30;;;;;;;1.98;63.16;100142.25;5028983;28;20024;-76
2022/12/13 10:36:37;;;;;;;5.53;3.22;;;;;;;1.99;63.41;100136.19;5024561;28;20417;-75
2022/12/13 10:39:03;;;;;;;2.97;1.80;;;;;;;2.03;64.19;100146.25;5026232;28;20030;-76
2022/12/13 10:41:36;;;;;;;11.02;2.55;;;;;;;2.06;64.63;100146.88;5030561;28;20473;-75
2022/12/13 10:44:10;;;;;;;5.82;3.30;;;;;;;2.07;64.59;100148.53;5030808;28;20385;-76
2022/12/13 10:46:40;;;;;;;6.03;3.05;;;;;;;2.10;65.99;100140.63;5039701;28;20389;-75
2022/12/13 10:49:18;;;;;;;5.13;2.65;;;;;;;2.10;62.48;100142.38;5026504;28;20354;-76
2022/12/13 10:51:44;;;;;;;5.35;3.05;;;;;;;2.14;65.31;100143.84;5028017;28;20026;-76
2022/12/13 10:54:18;;;;;;;7.13;3.42;;;;;;;2.17;65.35;100134.19;5031340;28;20125;-74
2022/12/13 10:56:50;;;;;;;12.35;4.28;;;;;;;2.18;63.90;100140.97;5023563;28;20485;-75
2022/12/13 10:59:24;;;;;;;6.22;3.47;;;;;;;2.17;63.71;100144.47;5026731;28;20444;-75
2022/12/13 11:01:50;;;;;;;8.60;5.07;;;;;;;2.19;64.02;100137.47;5029777;28;20029;-75
2022/12/13 11:04:21;;;;;;;5.85;3.60;;;;;;;2.17;63.73;100131.59;5026447;28;20052;-75
2022/12/13 11:06:47;;;;;;;5.47;3.20;;;;;;;2.21;64.04;100135.63;5029720;28;20045;-75
2022/12/13 11:09:25;;;;;;;6.88;2.80;;;;;;;2.25;63.51;100138.81;5024584;28;20037;-75
2022/12/13 11:11:52;;;;;;;6.53;2.78;;;;;;;2.22;62.81;100132.13;5026942;28;20037;-75
2022/12/13 11:14:22;;;;;;;4.78;2.60;;;;;;;2.23;63.54;100132.97;5028869;28;20119;-75
2022/12/13 11:16:59;;;;;;;13.43;3.75;;;;;;;2.28;62.33;100134.31;5025525;28;20370;-76
2022/12/13 11:19:35;;;;;;;4.90;2.70;;;;;;;2.29;63.18;100133.38;5028052;28;20109;-76
2022/12/13 11:22:00;;;;;;;8.40;2.45;;;;;;;2.31;63.75;100131.53;5023622;28;20029;-75
2022/12/13 11:24:32;;;;;;;4.20;2.47;;;;;;;2.31;63.49;100125.59;5030093;28;20125;-75
2022/12/13 11:27:07;;;;;;;4.72;2.22;;;;;;;2.35;64.20;100131.34;5030566;28;20679;-74
2022/12/13 11:29:57;;;;;;;4.25;2.67;;;;;;;2.37;62.54;100132.88;5029045;28;20029;-75
2022/12/13 11:32:40;;;;;;;4.55;2.53;;;;;;;2.33;62.09;100136.59;5022363;28;20422;-76
2022/12/13 11:35:46;;;;;;;4.55;2.38;;;;;;;2.29;60.02;100135.97;5021999;28;20071;-76
2022/12/13 11:38:21;;;;;;;6.93;2.15;;;;;;;2.31;64.66;100131.53;5024550;28;20432;-74
2022/12/13 11:40:57;;;;;;;4.28;2.08;;;;;;;2.37;64.86;100137.19;5033502;28;20025;-75